sensor_id;sensor_type;location;lat;lon;timestamp;P1;durP1;ratioP1;P2;durP2;ratioP2
73672;SDS011;61972;19.480;-99.240;2023-02-08T00:01:23;17.23;;;7.75;;
73672;SDS011;61972;19.480;-99.240;2023-02-08T00:03:50;18.38;;;7.93;;
73672;SDS011;61972;19.480;-99.240;2023-02-08T00:06:17;14.70;;;7.43;;
73672;SDS011;61972;19.480;-99.240;2023-02-08T00:08:43;11.50;;;7.27;;
73672;SDS011;61972;19.480;-99.240;2023-02-08T00:11:10;10.32;;;7.28;;
73672;SDS011;61972;19.480;-99.240;2023-02-08T00:13:38;11.07;;;6.93;;
73672;SDS011;61972;19.480;-99.240;2023-02-08T00:16:05;11.32;;;7.30;;
73672;SDS011;61972;19.480;-99.240;2023-02-08T00:18:32;13.57;;;7.32;;
73672;SDS011;61972;19.480;-99.240;2023-02-08T00:20:58;13.67;;;6.83;;
73672;SDS011;61972;19.480;-99.240;2023-02-08T00:23:24;12.10;;;6.85;;
73672;SDS011;61972;19.480;-99.240;2023-02-08T00:25:51;12.45;;;6.68;;
73672;SDS011;61972;19.480;-99.240;2023-02-08T00:28:17;15.93;;;6.93;;
73672;SDS011;61972;19.480;-99.240;2023-02-08T00:30:44;11.30;;;6.43;;
73672;SDS011;61972;19.480;-99.240;2023-02-08T00:33:10;13.03;;;6.33;;
73672;SDS011;61972;19.480;-99.240;2023-02-08T00:35:37;14.38;;;6.18;;
73672;SDS011;61972;19.480;-99.240;2023-02-08T00:38:06;12.35;;;6.20;;
73672;SDS011;61972;19.480;-99.240;2023-02-08T00:40:33;10.77;;;6.28;;
73672;SDS011;61972;19.480;-99.240;2023-02-08T00:42:59;14.25;;;6.53;;
73672;SDS011;61972;19.480;-99.240;2023-02-08T00:45:25;12.97;;;6.73;;
73672;SDS011;61972;19.480;-99.240;2023-02-08T00:47:51;12.60;;;6.93;;
73672;SDS011;61972;19.480;-99.240;2023-02-08T00:50:17;14.90;;;6.60;;
73672;SDS011;61972;19.480;-99.240;2023-02-08T00:52:43;10.90;;;6.20;;
73672;SDS011;61972;19.480;-99.240;2023-02-08T00:55:10;14.13;;;6.68;;
73672;SDS011;61972;19.480;-99.240;2023-02-08T00:57:36;14.73;;;7.07;;
73672;SDS011;61972;19.480;-99.240;2023-02-08T01:00:03;15.50;;;7.72;;
73672;SDS011;61972;19.480;-99.240;2023-02-08T01:02:31;16.40;;;7.90;;
73672;SDS011;61972;19.480;-99.240;2023-02-08T01:04:57;14.27;;;8.23;;
73672;SDS011;61972;19.480;-99.240;2023-02-08T01:07:23;20.55;;;8.00;;
73672;SDS011;61972;19.480;-99.240;2023-02-08T01:09:49;14.13;;;9.20;;
73672;SDS011;61972;19.480;-99.240;2023-02-08T01:12:15;19.23;;;8.50;;
73672;SDS011;61972;19.480;-99.240;2023-02-08T01:14:41;21.40;;;9.07;;
73672;SDS011;61972;19.480;-99.240;2023-02-08T01:17:08;20.25;;;9.55;;
73672;SDS011;61972;19.480;-99.240;2023-02-08T01:19:34;23.90;;;9.30;;
73672;SDS011;61972;19.480;-99.240;2023-02-08T01:22:00;26.40;;;9.37;;
73672;SDS011;61972;19.480;-99.240;2023-02-08T01:24:26;23.48;;;9.27;;
73672;SDS011;61972;19.480;-99.240;2023-02-08T01:26:52;19.70;;;8.70;;
73672;SDS011;61972;19.480;-99.240;2023-02-08T01:29:18;18.52;;;8.50;;
73672;SDS011;61972;19.480;-99.240;2023-02-08T01:31:44;16.33;;;7.88;;
73672;SDS011;61972;19.480;-99.240;2023-02-08T01:34:11;21.87;;;8.27;;
73672;SDS011;61972;19.480;-99.240;2023-02-08T01:36:37;14.32;;;7.82;;
73672;SDS011;61972;19.480;-99.240;2023-02-08T01:39:05;13.63;;;7.82;;
73672;SDS011;61972;19.480;-99.240;2023-02-08T01:41:33;13.13;;;7.60;;
73672;SDS011;61972;19.480;-99.240;2023-02-08T01:46:37;14.13;;;7.20;;
73672;SDS011;61972;19.480;-99.240;2023-02-08T01:49:08;13.68;;;6.75;;
73672;SDS011;61972;19.480;-99.240;2023-02-08T01:51:39;10.65;;;7.15;;
73672;SDS011;61972;19.480;-99.240;2023-02-08T01:54:09;12.40;;;7.25;;
73672;SDS011;61972;19.480;-99.240;2023-02-08T01:56:40;14.32;;;7.50;;
73672;SDS011;61972;19.480;-99.240;2023-02-08T01:59:13;14.80;;;7.20;;
73672;SDS011;61972;19.480;-99.240;2023-02-08T02:01:45;16.95;;;7.82;;
73672;SDS011;61972;19.480;-99.240;2023-02-08T02:04:13;12.80;;;7.55;;
73672;SDS011;61972;19.480;-99.240;2023-02-08T02:06:41;16.23;;;7.90;;
73672;SDS011;61972;19.480;-99.240;2023-02-08T02:11:42;11.93;;;6.80;;
73672;SDS011;61972;19.480;-99.240;2023-02-08T02:14:09;15.48;;;7.38;;
73672;SDS011;61972;19.480;-99.240;2023-02-08T02:16:35;16.27;;;7.55;;
73672;SDS011;61972;19.480;-99.240;2023-02-08T02:19:02;13.55;;;7.25;;
73672;SDS011;61972;19.480;-99.240;2023-02-08T02:31:47;14.45;;;8.20;;
73672;SDS011;61972;19.480;-99.240;2023-02-08T02:42:33;23.92;;;8.70;;
73672;SDS011;61972;19.480;-99.240;2023-02-08T02:45:32;23.77;;;9.25;;
73672;SDS011;61972;19.480;-99.240;2023-02-08T02:48:07;19.58;;;9.45;;
73672;SDS011;61972;19.480;-99.240;2023-02-08T02:50:54;30.50;;;11.13;;
73672;SDS011;61972;19.480;-99.240;2023-02-08T02:53:48;22.27;;;10.20;;
73672;SDS011;61972;19.480;-99.240;2023-02-08T02:56:21;23.00;;;10.82;;
73672;SDS011;61972;19.480;-99.240;2023-02-08T02:58:51;21.42;;;11.60;;
73672;SDS011;61972;19.480;-99.240;2023-02-08T03:01:23;23.20;;;11.02;;
73672;SDS011;61972;19.480;-99.240;2023-02-08T03:03:54;22.43;;;11.27;;
73672;SDS011;61972;19.480;-99.240;2023-02-08T03:07:04;30.92;;;11.30;;
73672;SDS011;61972;19.480;-99.240;2023-02-08T03:09:20;22.83;;;10.65;;
73672;SDS011;61972;19.480;-99.240;2023-02-08T03:17:47;22.33;;;10.27;;
73672;SDS011;61972;19.480;-99.240;2023-02-08T03:20:25;25.95;;;11.15;;
73672;SDS011;61972;19.480;-99.240;2023-02-08T03:22:57;18.90;;;11.82;;
73672;SDS011;61972;19.480;-99.240;2023-02-08T03:25:27;20.10;;;11.68;;
73672;SDS011;61972;19.480;-99.240;2023-02-08T03:28:14;26.20;;;12.60;;
73672;SDS011;61972;19.480;-99.240;2023-02-08T03:33:38;20.27;;;11.45;;
73672;SDS011;61972;19.480;-99.240;2023-02-08T03:36:19;25.92;;;12.20;;
73672;SDS011;61972;19.480;-99.240;2023-02-08T03:38:51;24.33;;;12.77;;
73672;SDS011;61972;19.480;-99.240;2023-02-08T03:41:21;19.02;;;12.25;;
73672;SDS011;61972;19.480;-99.240;2023-02-08T03:43:57;30.77;;;12.37;;
73672;SDS011;61972;19.480;-99.240;2023-02-08T03:46:34;20.70;;;12.82;;
73672;SDS011;61972;19.480;-99.240;2023-02-08T03:49:06;25.77;;;12.13;;
73672;SDS011;61972;19.480;-99.240;2023-02-08T03:51:36;23.58;;;11.85;;
73672;SDS011;61972;19.480;-99.240;2023-02-08T03:54:05;22.77;;;11.80;;
73672;SDS011;61972;19.480;-99.240;2023-02-08T03:56:58;23.07;;;11.63;;
73672;SDS011;61972;19.480;-99.240;2023-02-08T03:59:37;22.88;;;11.95;;
73672;SDS011;61972;19.480;-99.240;2023-02-08T04:02:08;27.38;;;12.02;;
73672;SDS011;61972;19.480;-99.240;2023-02-08T04:04:39;25.90;;;11.65;;
73672;SDS011;61972;19.480;-99.240;2023-02-08T04:07:08;21.33;;;11.07;;
73672;SDS011;61972;19.480;-99.240;2023-02-08T04:09:35;18.70;;;11.47;;
73672;SDS011;61972;19.480;-99.240;2023-02-08T04:12:01;20.95;;;11.48;;
73672;SDS011;61972;19.480;-99.240;2023-02-08T04:14:27;20.10;;;11.20;;
73672;SDS011;61972;19.480;-99.240;2023-02-08T04:16:53;15.48;;;11.13;;
73672;SDS011;61972;19.480;-99.240;2023-02-08T04:19:19;15.63;;;10.68;;
73672;SDS011;61972;19.480;-99.240;2023-02-08T04:21:45;26.03;;;11.97;;
73672;SDS011;61972;19.480;-99.240;2023-02-08T04:24:12;17.30;;;10.85;;
73672;SDS011;61972;19.480;-99.240;2023-02-08T04:26:38;19.75;;;10.15;;
73672;SDS011;61972;19.480;-99.240;2023-02-08T04:29:04;19.33;;;10.15;;
73672;SDS011;61972;19.480;-99.240;2023-02-08T04:31:30;17.90;;;10.05;;
73672;SDS011;61972;19.480;-99.240;2023-02-08T04:33:56;17.10;;;9.90;;
73672;SDS011;61972;19.480;-99.240;2023-02-08T04:36:22;19.42;;;9.35;;
73672;SDS011;61972;19.480;-99.240;2023-02-08T04:38:49;18.40;;;9.43;;
73672;SDS011;61972;19.480;-99.240;2023-02-08T04:41:15;20.17;;;9.75;;
73672;SDS011;61972;19.480;-99.240;2023-02-08T04:43:41;22.77;;;9.13;;
73672;SDS011;61972;19.480;-99.240;2023-02-08T04:46:07;21.03;;;9.83;;
73672;SDS011;61972;19.480;-99.240;2023-02-08T04:48:36;20.02;;;9.35;;
73672;SDS011;61972;19.480;-99.240;2023-02-08T04:51:08;16.17;;;9.25;;
73672;SDS011;61972;19.480;-99.240;2023-02-08T04:53:34;22.52;;;9.38;;
73672;SDS011;61972;19.480;-99.240;2023-02-08T04:56:00;23.25;;;8.73;;
73672;SDS011;61972;19.480;-99.240;2023-02-08T04:58:27;13.40;;;9.07;;
73672;SDS011;61972;19.480;-99.240;2023-02-08T05:00:53;24.08;;;9.02;;
73672;SDS011;61972;19.480;-99.240;2023-02-08T05:03:19;21.50;;;8.63;;
73672;SDS011;61972;19.480;-99.240;2023-02-08T05:05:45;14.73;;;9.23;;
73672;SDS011;61972;19.480;-99.240;2023-02-08T05:08:11;18.63;;;8.75;;
73672;SDS011;61972;19.480;-99.240;2023-02-08T05:10:42;18.93;;;8.47;;
73672;SDS011;61972;19.480;-99.240;2023-02-08T05:13:09;19.90;;;8.93;;
73672;SDS011;61972;19.480;-99.240;2023-02-08T05:15:35;15.75;;;8.13;;
73672;SDS011;61972;19.480;-99.240;2023-02-08T05:18:01;18.42;;;8.75;;
73672;SDS011;61972;19.480;-99.240;2023-02-08T05:20:27;18.25;;;9.20;;
73672;SDS011;61972;19.480;-99.240;2023-02-08T05:22:54;19.70;;;8.40;;
73672;SDS011;61972;19.480;-99.240;2023-02-08T05:25:20;11.80;;;8.20;;
73672;SDS011;61972;19.480;-99.240;2023-02-08T05:27:47;14.50;;;7.63;;
73672;SDS011;61972;19.480;-99.240;2023-02-08T05:30:13;23.83;;;8.80;;
73672;SDS011;61972;19.480;-99.240;2023-02-08T05:32:39;15.40;;;7.93;;
73672;SDS011;61972;19.480;-99.240;2023-02-08T05:35:06;16.20;;;8.53;;
73672;SDS011;61972;19.480;-99.240;2023-02-08T05:37:32;17.65;;;8.48;;
73672;SDS011;61972;19.480;-99.240;2023-02-08T05:39:58;17.00;;;8.00;;
73672;SDS011;61972;19.480;-99.240;2023-02-08T05:42:24;17.65;;;8.80;;
73672;SDS011;61972;19.480;-99.240;2023-02-08T05:44:51;14.40;;;7.97;;
73672;SDS011;61972;19.480;-99.240;2023-02-08T05:47:17;20.13;;;8.20;;
73672;SDS011;61972;19.480;-99.240;2023-02-08T05:49:43;16.52;;;8.07;;
73672;SDS011;61972;19.480;-99.240;2023-02-08T05:52:09;15.48;;;8.27;;
73672;SDS011;61972;19.480;-99.240;2023-02-08T05:54:35;19.52;;;8.30;;
73672;SDS011;61972;19.480;-99.240;2023-02-08T05:57:02;16.10;;;8.60;;
73672;SDS011;61972;19.480;-99.240;2023-02-08T05:59:28;14.07;;;8.40;;
73672;SDS011;61972;19.480;-99.240;2023-02-08T06:01:54;14.40;;;8.13;;
73672;SDS011;61972;19.480;-99.240;2023-02-08T06:04:20;15.25;;;8.32;;
73672;SDS011;61972;19.480;-99.240;2023-02-08T06:06:46;17.27;;;8.48;;
73672;SDS011;61972;19.480;-99.240;2023-02-08T06:09:12;16.67;;;8.27;;
73672;SDS011;61972;19.480;-99.240;2023-02-08T06:11:38;16.40;;;8.03;;
73672;SDS011;61972;19.480;-99.240;2023-02-08T06:14:05;16.95;;;8.13;;
73672;SDS011;61972;19.480;-99.240;2023-02-08T06:16:31;18.75;;;8.15;;
73672;SDS011;61972;19.480;-99.240;2023-02-08T06:18:57;18.17;;;8.23;;
73672;SDS011;61972;19.480;-99.240;2023-02-08T06:21:26;18.42;;;8.45;;
73672;SDS011;61972;19.480;-99.240;2023-02-08T06:23:52;17.70;;;8.63;;
73672;SDS011;61972;19.480;-99.240;2023-02-08T06:26:18;15.50;;;8.25;;
73672;SDS011;61972;19.480;-99.240;2023-02-08T06:28:44;15.60;;;8.32;;
73672;SDS011;61972;19.480;-99.240;2023-02-08T06:31:10;15.88;;;8.07;;
73672;SDS011;61972;19.480;-99.240;2023-02-08T06:33:36;19.23;;;8.57;;
73672;SDS011;61972;19.480;-99.240;2023-02-08T06:36:03;18.93;;;8.37;;
73672;SDS011;61972;19.480;-99.240;2023-02-08T06:38:29;20.08;;;8.90;;
73672;SDS011;61972;19.480;-99.240;2023-02-08T06:40:55;17.38;;;8.85;;
73672;SDS011;61972;19.480;-99.240;2023-02-08T06:43:21;18.58;;;8.60;;
73672;SDS011;61972;19.480;-99.240;2023-02-08T06:45:47;16.45;;;8.52;;
73672;SDS011;61972;19.480;-99.240;2023-02-08T06:48:14;24.53;;;8.73;;
73672;SDS011;61972;19.480;-99.240;2023-02-08T06:50:40;18.70;;;8.88;;
73672;SDS011;61972;19.480;-99.240;2023-02-08T06:53:06;18.05;;;8.38;;
73672;SDS011;61972;19.480;-99.240;2023-02-08T06:55:32;19.65;;;8.50;;
73672;SDS011;61972;19.480;-99.240;2023-02-08T06:57:59;15.80;;;8.30;;
73672;SDS011;61972;19.480;-99.240;2023-02-08T07:00:35;20.83;;;9.37;;
73672;SDS011;61972;19.480;-99.240;2023-02-08T07:03:03;17.45;;;9.50;;
73672;SDS011;61972;19.480;-99.240;2023-02-08T07:05:29;14.15;;;8.73;;
73672;SDS011;61972;19.480;-99.240;2023-02-08T07:07:55;15.15;;;8.27;;
73672;SDS011;61972;19.480;-99.240;2023-02-08T07:10:21;16.20;;;8.60;;
73672;SDS011;61972;19.480;-99.240;2023-02-08T07:12:48;15.30;;;8.57;;
73672;SDS011;61972;19.480;-99.240;2023-02-08T07:15:14;17.05;;;8.90;;
73672;SDS011;61972;19.480;-99.240;2023-02-08T07:17:40;19.77;;;8.88;;
73672;SDS011;61972;19.480;-99.240;2023-02-08T07:20:06;14.52;;;9.50;;
73672;SDS011;61972;19.480;-99.240;2023-02-08T07:22:35;19.00;;;9.35;;
73672;SDS011;61972;19.480;-99.240;2023-02-08T07:25:02;17.37;;;8.40;;
73672;SDS011;61972;19.480;-99.240;2023-02-08T07:27:33;15.30;;;8.73;;
73672;SDS011;61972;19.480;-99.240;2023-02-08T07:29:59;18.40;;;9.05;;
73672;SDS011;61972;19.480;-99.240;2023-02-08T07:32:26;13.40;;;8.25;;
73672;SDS011;61972;19.480;-99.240;2023-02-08T07:34:52;15.38;;;8.15;;
73672;SDS011;61972;19.480;-99.240;2023-02-08T07:37:18;14.80;;;7.97;;
73672;SDS011;61972;19.480;-99.240;2023-02-08T07:39:44;13.18;;;8.23;;
73672;SDS011;61972;19.480;-99.240;2023-02-08T07:42:11;13.10;;;8.00;;
73672;SDS011;61972;19.480;-99.240;2023-02-08T07:44:37;14.50;;;7.97;;
73672;SDS011;61972;19.480;-99.240;2023-02-08T07:47:04;12.23;;;7.63;;
73672;SDS011;61972;19.480;-99.240;2023-02-08T07:49:31;12.47;;;7.67;;
73672;SDS011;61972;19.480;-99.240;2023-02-08T07:51:57;12.95;;;8.07;;
73672;SDS011;61972;19.480;-99.240;2023-02-08T07:54:25;12.35;;;7.35;;
73672;SDS011;61972;19.480;-99.240;2023-02-08T07:56:51;15.20;;;8.00;;
73672;SDS011;61972;19.480;-99.240;2023-02-08T07:59:17;11.82;;;7.95;;
73672;SDS011;61972;19.480;-99.240;2023-02-08T08:01:43;12.87;;;7.80;;
73672;SDS011;61972;19.480;-99.240;2023-02-08T08:04:10;12.15;;;7.88;;
73672;SDS011;61972;19.480;-99.240;2023-02-08T08:06:37;14.60;;;8.07;;
73672;SDS011;61972;19.480;-99.240;2023-02-08T08:09:03;13.23;;;7.63;;
73672;SDS011;61972;19.480;-99.240;2023-02-08T08:11:30;12.07;;;7.60;;
73672;SDS011;61972;19.480;-99.240;2023-02-08T08:13:56;13.10;;;7.63;;
73672;SDS011;61972;19.480;-99.240;2023-02-08T08:16:22;11.98;;;7.45;;
73672;SDS011;61972;19.480;-99.240;2023-02-08T08:18:48;13.27;;;7.15;;
73672;SDS011;61972;19.480;-99.240;2023-02-08T08:21:15;12.15;;;7.20;;
73672;SDS011;61972;19.480;-99.240;2023-02-08T08:23:44;10.50;;;6.57;;
73672;SDS011;61972;19.480;-99.240;2023-02-08T08:26:14;18.33;;;7.73;;
73672;SDS011;61972;19.480;-99.240;2023-02-08T08:28:43;12.20;;;7.18;;
73672;SDS011;61972;19.480;-99.240;2023-02-08T08:31:11;14.63;;;7.03;;
73672;SDS011;61972;19.480;-99.240;2023-02-08T08:33:39;14.15;;;7.40;;
73672;SDS011;61972;19.480;-99.240;2023-02-08T08:36:05;10.82;;;7.00;;
73672;SDS011;61972;19.480;-99.240;2023-02-08T08:38:32;10.40;;;7.07;;
73672;SDS011;61972;19.480;-99.240;2023-02-08T08:40:58;12.35;;;7.38;;
73672;SDS011;61972;19.480;-99.240;2023-02-08T08:43:25;15.00;;;6.85;;
73672;SDS011;61972;19.480;-99.240;2023-02-08T08:45:51;10.40;;;6.90;;
73672;SDS011;61972;19.480;-99.240;2023-02-08T08:48:17;12.07;;;7.22;;
73672;SDS011;61972;19.480;-99.240;2023-02-08T08:50:43;12.60;;;6.70;;
73672;SDS011;61972;19.480;-99.240;2023-02-08T08:53:09;11.20;;;6.47;;
73672;SDS011;61972;19.480;-99.240;2023-02-08T08:55:35;9.57;;;6.93;;
73672;SDS011;61972;19.480;-99.240;2023-02-08T08:58:01;11.73;;;6.93;;
73672;SDS011;61972;19.480;-99.240;2023-02-08T09:00:27;14.23;;;7.43;;
73672;SDS011;61972;19.480;-99.240;2023-02-08T09:02:53;9.70;;;6.73;;
73672;SDS011;61972;19.480;-99.240;2023-02-08T09:05:19;10.65;;;6.68;;
73672;SDS011;61972;19.480;-99.240;2023-02-08T09:07:45;12.55;;;6.38;;
73672;SDS011;61972;19.480;-99.240;2023-02-08T09:10:11;12.05;;;6.60;;
73672;SDS011;61972;19.480;-99.240;2023-02-08T09:12:37;10.57;;;7.18;;
73672;SDS011;61972;19.480;-99.240;2023-02-08T09:15:03;9.70;;;6.37;;
73672;SDS011;61972;19.480;-99.240;2023-02-08T09:17:30;10.05;;;6.53;;
73672;SDS011;61972;19.480;-99.240;2023-02-08T09:19:56;8.93;;;5.70;;
73672;SDS011;61972;19.480;-99.240;2023-02-08T09:22:22;9.05;;;6.25;;
73672;SDS011;61972;19.480;-99.240;2023-02-08T09:24:51;10.13;;;6.25;;
73672;SDS011;61972;19.480;-99.240;2023-02-08T09:27:17;8.57;;;6.03;;
73672;SDS011;61972;19.480;-99.240;2023-02-08T09:29:43;9.50;;;5.95;;
73672;SDS011;61972;19.480;-99.240;2023-02-08T09:32:10;9.05;;;5.90;;
73672;SDS011;61972;19.480;-99.240;2023-02-08T09:34:36;9.40;;;6.00;;
73672;SDS011;61972;19.480;-99.240;2023-02-08T09:37:02;8.95;;;6.10;;
73672;SDS011;61972;19.480;-99.240;2023-02-08T09:39:30;10.53;;;5.93;;
73672;SDS011;61972;19.480;-99.240;2023-02-08T09:47:36;10.00;;;5.90;;
73672;SDS011;61972;19.480;-99.240;2023-02-08T09:50:13;9.43;;;6.03;;
73672;SDS011;61972;19.480;-99.240;2023-02-08T09:52:46;8.07;;;5.90;;
73672;SDS011;61972;19.480;-99.240;2023-02-08T09:55:22;8.57;;;5.90;;
73672;SDS011;61972;19.480;-99.240;2023-02-08T09:58:02;10.32;;;5.70;;
73672;SDS011;61972;19.480;-99.240;2023-02-08T10:00:38;8.97;;;5.77;;
73672;SDS011;61972;19.480;-99.240;2023-02-08T10:05:52;10.20;;;5.88;;
73672;SDS011;61972;19.480;-99.240;2023-02-08T10:08:19;8.75;;;5.57;;
73672;SDS011;61972;19.480;-99.240;2023-02-08T10:19:20;7.25;;;5.30;;
73672;SDS011;61972;19.480;-99.240;2023-02-08T10:31:31;8.07;;;5.68;;
73672;SDS011;61972;19.480;-99.240;2023-02-08T10:36:19;8.60;;;5.15;;
73672;SDS011;61972;19.480;-99.240;2023-02-08T10:38:49;7.97;;;5.43;;
73672;SDS011;61972;19.480;-99.240;2023-02-08T10:41:19;7.07;;;5.10;;
73672;SDS011;61972;19.480;-99.240;2023-02-08T10:49:23;7.15;;;4.80;;
73672;SDS011;61972;19.480;-99.240;2023-02-08T10:52:14;7.25;;;5.38;;
73672;SDS011;61972;19.480;-99.240;2023-02-08T10:54:40;7.40;;;5.07;;
73672;SDS011;61972;19.480;-99.240;2023-02-08T11:00:20;9.60;;;4.85;;
73672;SDS011;61972;19.480;-99.240;2023-02-08T11:02:46;7.88;;;4.70;;
73672;SDS011;61972;19.480;-99.240;2023-02-08T11:05:38;7.97;;;4.82;;
73672;SDS011;61972;19.480;-99.240;2023-02-08T11:10:32;7.28;;;4.80;;
73672;SDS011;61972;19.480;-99.240;2023-02-08T11:15:38;7.28;;;4.88;;
73672;SDS011;61972;19.480;-99.240;2023-02-08T11:18:19;7.47;;;5.20;;
73672;SDS011;61972;19.480;-99.240;2023-02-08T11:21:04;6.60;;;4.50;;
73672;SDS011;61972;19.480;-99.240;2023-02-08T11:23:39;7.10;;;4.88;;
73672;SDS011;61972;19.480;-99.240;2023-02-08T11:31:28;7.15;;;4.55;;
73672;SDS011;61972;19.480;-99.240;2023-02-08T11:34:00;7.23;;;4.80;;
73672;SDS011;61972;19.480;-99.240;2023-02-08T11:36:28;8.00;;;4.43;;
73672;SDS011;61972;19.480;-99.240;2023-02-08T11:38:56;7.97;;;5.10;;
73672;SDS011;61972;19.480;-99.240;2023-02-08T11:41:22;6.88;;;4.70;;
73672;SDS011;61972;19.480;-99.240;2023-02-08T11:43:56;7.88;;;5.00;;
73672;SDS011;61972;19.480;-99.240;2023-02-08T11:46:31;6.63;;;4.80;;
73672;SDS011;61972;19.480;-99.240;2023-02-08T11:49:00;6.80;;;4.82;;
73672;SDS011;61972;19.480;-99.240;2023-02-08T11:51:33;6.65;;;4.68;;
73672;SDS011;61972;19.480;-99.240;2023-02-08T11:54:02;7.13;;;4.70;;
73672;SDS011;61972;19.480;-99.240;2023-02-08T11:56:31;6.68;;;4.53;;
73672;SDS011;61972;19.480;-99.240;2023-02-08T11:59:03;6.50;;;4.20;;
73672;SDS011;61972;19.480;-99.240;2023-02-08T12:01:41;6.50;;;4.40;;
73672;SDS011;61972;19.480;-99.240;2023-02-08T12:04:14;6.55;;;4.47;;
73672;SDS011;61972;19.480;-99.240;2023-02-08T12:15:21;5.90;;;4.15;;
73672;SDS011;61972;19.480;-99.240;2023-02-08T12:20:40;6.45;;;4.57;;
73672;SDS011;61972;19.480;-99.240;2023-02-08T12:26:11;6.30;;;4.17;;
73672;SDS011;61972;19.480;-99.240;2023-02-08T12:31:36;7.70;;;4.70;;
73672;SDS011;61972;19.480;-99.240;2023-02-08T12:45:54;6.68;;;3.85;;
73672;SDS011;61972;19.480;-99.240;2023-02-08T12:48:27;5.75;;;3.88;;
73672;SDS011;61972;19.480;-99.240;2023-02-08T12:53:44;6.13;;;4.17;;
73672;SDS011;61972;19.480;-99.240;2023-02-08T12:56:17;5.60;;;3.95;;
73672;SDS011;61972;19.480;-99.240;2023-02-08T12:58:48;6.28;;;4.30;;
73672;SDS011;61972;19.480;-99.240;2023-02-08T13:01:25;5.82;;;4.13;;
73672;SDS011;61972;19.480;-99.240;2023-02-08T13:06:30;6.90;;;4.23;;
73672;SDS011;61972;19.480;-99.240;2023-02-08T13:09:21;7.15;;;4.45;;
73672;SDS011;61972;19.480;-99.240;2023-02-08T13:20:06;8.83;;;4.67;;
73672;SDS011;61972;19.480;-99.240;2023-02-08T13:22:55;11.05;;;4.60;;
73672;SDS011;61972;19.480;-99.240;2023-02-08T13:25:34;10.35;;;4.55;;
73672;SDS011;61972;19.480;-99.240;2023-02-08T13:28:05;7.68;;;4.40;;
73672;SDS011;61972;19.480;-99.240;2023-02-08T13:30:35;9.35;;;4.72;;
73672;SDS011;61972;19.480;-99.240;2023-02-08T13:33:14;8.47;;;4.60;;
73672;SDS011;61972;19.480;-99.240;2023-02-08T13:35:47;6.82;;;4.30;;
73672;SDS011;61972;19.480;-99.240;2023-02-08T13:38:34;8.30;;;4.32;;
73672;SDS011;61972;19.480;-99.240;2023-02-08T13:41:06;7.18;;;4.20;;
73672;SDS011;61972;19.480;-99.240;2023-02-08T13:43:53;6.28;;;4.30;;
73672;SDS011;61972;19.480;-99.240;2023-02-08T13:46:23;6.57;;;3.97;;
73672;SDS011;61972;19.480;-99.240;2023-02-08T13:48:53;7.18;;;4.40;;
73672;SDS011;61972;19.480;-99.240;2023-02-08T13:56:38;10.80;;;4.60;;
73672;SDS011;61972;19.480;-99.240;2023-02-08T14:04:47;7.50;;;4.43;;
73672;SDS011;61972;19.480;-99.240;2023-02-08T14:15:43;7.55;;;3.90;;
73672;SDS011;61972;19.480;-99.240;2023-02-08T14:18:26;6.18;;;3.75;;
73672;SDS011;61972;19.480;-99.240;2023-02-08T14:20:58;7.45;;;4.30;;
73672;SDS011;61972;19.480;-99.240;2023-02-08T14:23:29;6.72;;;4.00;;
73672;SDS011;61972;19.480;-99.240;2023-02-08T14:25:58;6.67;;;3.67;;
73672;SDS011;61972;19.480;-99.240;2023-02-08T14:31:01;5.63;;;4.03;;
73672;SDS011;61972;19.480;-99.240;2023-02-08T14:33:35;5.68;;;3.72;;
73672;SDS011;61972;19.480;-99.240;2023-02-08T14:36:05;6.70;;;4.20;;
73672;SDS011;61972;19.480;-99.240;2023-02-08T14:47:10;9.10;;;3.83;;
73672;SDS011;61972;19.480;-99.240;2023-02-08T14:53:04;6.77;;;3.57;;
73672;SDS011;61972;19.480;-99.240;2023-02-08T14:56:00;5.38;;;3.83;;
73672;SDS011;61972;19.480;-99.240;2023-02-08T14:58:41;6.28;;;3.65;;
73672;SDS011;61972;19.480;-99.240;2023-02-08T15:01:13;6.80;;;3.45;;
73672;SDS011;61972;19.480;-99.240;2023-02-08T15:03:43;8.68;;;4.03;;
73672;SDS011;61972;19.480;-99.240;2023-02-08T15:06:25;6.23;;;3.47;;
73672;SDS011;61972;19.480;-99.240;2023-02-08T15:09:04;5.43;;;3.47;;
73672;SDS011;61972;19.480;-99.240;2023-02-08T15:11:58;6.72;;;3.65;;
73672;SDS011;61972;19.480;-99.240;2023-02-08T15:14:26;6.57;;;3.38;;
73672;SDS011;61972;19.480;-99.240;2023-02-08T15:16:53;5.07;;;3.30;;
73672;SDS011;61972;19.480;-99.240;2023-02-08T15:19:28;6.40;;;3.63;;
73672;SDS011;61972;19.480;-99.240;2023-02-08T15:24:52;5.75;;;3.60;;
73672;SDS011;61972;19.480;-99.240;2023-02-08T15:27:28;5.75;;;3.13;;
73672;SDS011;61972;19.480;-99.240;2023-02-08T15:29:57;6.28;;;3.08;;
73672;SDS011;61972;19.480;-99.240;2023-02-08T15:32:26;5.20;;;3.33;;
73672;SDS011;61972;19.480;-99.240;2023-02-08T15:34:55;4.68;;;3.10;;
73672;SDS011;61972;19.480;-99.240;2023-02-08T15:37:24;5.38;;;3.30;;
73672;SDS011;61972;19.480;-99.240;2023-02-08T15:39:54;5.35;;;3.20;;
73672;SDS011;61972;19.480;-99.240;2023-02-08T15:42:22;5.20;;;3.47;;
73672;SDS011;61972;19.480;-99.240;2023-02-08T15:44:51;5.77;;;3.43;;
73672;SDS011;61972;19.480;-99.240;2023-02-08T15:47:38;5.32;;;3.40;;
73672;SDS011;61972;19.480;-99.240;2023-02-08T15:50:06;5.30;;;2.92;;
73672;SDS011;61972;19.480;-99.240;2023-02-08T15:52:39;4.63;;;3.17;;
73672;SDS011;61972;19.480;-99.240;2023-02-08T15:55:06;5.38;;;3.45;;
73672;SDS011;61972;19.480;-99.240;2023-02-08T15:57:35;4.57;;;2.83;;
73672;SDS011;61972;19.480;-99.240;2023-02-08T16:00:17;5.63;;;3.35;;
73672;SDS011;61972;19.480;-99.240;2023-02-08T16:02:50;4.97;;;2.90;;
73672;SDS011;61972;19.480;-99.240;2023-02-08T16:05:23;4.80;;;3.17;;
73672;SDS011;61972;19.480;-99.240;2023-02-08T16:07:52;5.95;;;3.22;;
73672;SDS011;61972;19.480;-99.240;2023-02-08T16:10:24;4.87;;;3.10;;
73672;SDS011;61972;19.480;-99.240;2023-02-08T16:13:21;5.13;;;3.20;;
73672;SDS011;61972;19.480;-99.240;2023-02-08T16:15:53;5.90;;;3.20;;
73672;SDS011;61972;19.480;-99.240;2023-02-08T16:18:40;5.68;;;3.30;;
73672;SDS011;61972;19.480;-99.240;2023-02-08T16:21:21;5.30;;;3.30;;
73672;SDS011;61972;19.480;-99.240;2023-02-08T16:23:55;5.33;;;3.30;;
73672;SDS011;61972;19.480;-99.240;2023-02-08T16:27:20;4.80;;;3.00;;
73672;SDS011;61972;19.480;-99.240;2023-02-08T16:29:55;4.82;;;3.00;;
73672;SDS011;61972;19.480;-99.240;2023-02-08T16:32:32;4.68;;;3.20;;
73672;SDS011;61972;19.480;-99.240;2023-02-08T16:38:01;4.83;;;2.87;;
73672;SDS011;61972;19.480;-99.240;2023-02-08T16:40:50;4.43;;;3.08;;
73672;SDS011;61972;19.480;-99.240;2023-02-08T16:43:22;6.57;;;3.08;;
73672;SDS011;61972;19.480;-99.240;2023-02-08T16:48:42;9.27;;;5.28;;
73672;SDS011;61972;19.480;-99.240;2023-02-08T16:51:12;11.20;;;6.03;;
73672;SDS011;61972;19.480;-99.240;2023-02-08T16:53:50;13.73;;;6.55;;
73672;SDS011;61972;19.480;-99.240;2023-02-08T16:56:20;12.65;;;7.47;;
73672;SDS011;61972;19.480;-99.240;2023-02-08T16:58:47;14.82;;;7.53;;
73672;SDS011;61972;19.480;-99.240;2023-02-08T17:01:13;13.63;;;7.88;;
73672;SDS011;61972;19.480;-99.240;2023-02-08T17:03:40;12.73;;;7.70;;
73672;SDS011;61972;19.480;-99.240;2023-02-08T17:06:06;17.20;;;8.50;;
73672;SDS011;61972;19.480;-99.240;2023-02-08T17:08:41;14.32;;;8.52;;
73672;SDS011;61972;19.480;-99.240;2023-02-08T17:11:08;15.95;;;8.50;;
73672;SDS011;61972;19.480;-99.240;2023-02-08T17:13:37;14.90;;;8.55;;